Portada
METAR-TAF:

METAR-TAF

Aeroports :

Aeroport Internacional de Fujairah

Fujairah, Emirats Àrabs Units

latitud: 25-06N, longitud: 056-20E, altitud: 28 m

Observació

L'informe es va fer fa 44 minuts, a les 06:00 UTC
Vent 8 kt del Est/Sud-Est
Temperatura 34°C
Humitat 63%
Pressió 1004 hPa
Visibilitat: 8000 m

METAR: OMFJ 220600Z 11008KT 8000 NSC 34/26 Q1004 A2966

Hora: 10:44 (06:44 UTC)

Pronòstic

L'informe es va fer fa 1 hora i 44 minuts, a les 05:00 UTC
Pronòstic vàlid del 22 a les 06 UTC al 23 a les 12 UTC
Vent 8 kt del Est
Visibilitat: 7000 m
Temporalment
l' 22 a les 09 UTC al 22 a les 14 UTC
Vent 12 kt del Nord/Nord-Oest
Evolucionant progressivament
l' 22 a les 14 UTC al 22 a les 16 UTC
Vent 6 kt del Sud/Sud-Oest
Evolucionant progressivament
l' 22 a les 17 UTC al 22 a les 19 UTC
Vent 10 kt del Oest/Nord-Oest

TAF: OMFJ 220500Z 2206/2312 08008KT 7000 NSC TEMPO 2209/2214 33012KT BECMG 2214/2216 20006KT BECMG 2217/2219 29010KT

Observacions i pronòstics meteorològics de més de 4000 aeroports (METAR i TAF).

Les estacions disponibles són els punts grocs i vermells al mapa.

Posi el ratolí al punt desitjat per veure el nom de l'estació.

Feu clic per veure les observacions i els pronòstics meteorològics.

Per canviar el mapa: feu clic els botons verds amb una creu de color negre per apropar; al botó verd amb un guió per allunyar la imatge; o en les fletxes verdes per a mapes adjacents.


METAR-TAF: